sensor_id;sensor_type;location;lat;lon;timestamp;P1;durP1;ratioP1;P2;durP2;ratioP2
40459;SDS011;26164;51.138;16.952;2023-08-01T00:01:27;5.75;;;2.20;;
40459;SDS011;26164;51.138;16.952;2023-08-01T00:03:53;5.47;;;2.10;;
40459;SDS011;26164;51.138;16.952;2023-08-01T00:06:19;5.35;;;1.98;;
40459;SDS011;26164;51.138;16.952;2023-08-01T00:08:45;6.50;;;2.20;;
40459;SDS011;26164;51.138;16.952;2023-08-01T00:11:11;6.03;;;1.63;;
40459;SDS011;26164;51.138;16.952;2023-08-01T00:13:40;7.15;;;1.98;;
40459;SDS011;26164;51.138;16.952;2023-08-01T00:16:05;6.20;;;2.10;;
40459;SDS011;26164;51.138;16.952;2023-08-01T00:18:31;5.00;;;2.00;;
40459;SDS011;26164;51.138;16.952;2023-08-01T00:20:56;8.95;;;2.53;;
40459;SDS011;26164;51.138;16.952;2023-08-01T00:23:22;8.25;;;2.08;;
40459;SDS011;26164;51.138;16.952;2023-08-01T00:25:48;5.43;;;1.67;;
40459;SDS011;26164;51.138;16.952;2023-08-01T00:28:17;6.22;;;2.20;;
40459;SDS011;26164;51.138;16.952;2023-08-01T00:30:42;9.15;;;2.20;;
40459;SDS011;26164;51.138;16.952;2023-08-01T00:33:08;4.35;;;2.05;;
40459;SDS011;26164;51.138;16.952;2023-08-01T00:35:34;5.63;;;1.70;;
40459;SDS011;26164;51.138;16.952;2023-08-01T00:38:00;7.43;;;2.15;;
40459;SDS011;26164;51.138;16.952;2023-08-01T00:40:32;5.68;;;1.95;;
40459;SDS011;26164;51.138;16.952;2023-08-01T00:42:58;5.72;;;2.10;;
40459;SDS011;26164;51.138;16.952;2023-08-01T00:45:24;8.13;;;1.98;;
40459;SDS011;26164;51.138;16.952;2023-08-01T00:47:51;8.15;;;1.80;;
40459;SDS011;26164;51.138;16.952;2023-08-01T00:50:16;7.78;;;1.90;;
40459;SDS011;26164;51.138;16.952;2023-08-01T00:52:42;5.68;;;2.00;;
40459;SDS011;26164;51.138;16.952;2023-08-01T00:55:08;7.05;;;2.10;;
40459;SDS011;26164;51.138;16.952;2023-08-01T00:57:34;6.97;;;1.85;;
40459;SDS011;26164;51.138;16.952;2023-08-01T00:59:59;6.03;;;2.13;;
40459;SDS011;26164;51.138;16.952;2023-08-01T01:02:25;5.90;;;2.25;;
40459;SDS011;26164;51.138;16.952;2023-08-01T01:04:50;5.63;;;1.83;;
40459;SDS011;26164;51.138;16.952;2023-08-01T01:07:16;7.90;;;2.33;;
40459;SDS011;26164;51.138;16.952;2023-08-01T01:09:42;4.90;;;1.75;;
40459;SDS011;26164;51.138;16.952;2023-08-01T01:12:08;6.22;;;2.10;;
40459;SDS011;26164;51.138;16.952;2023-08-01T01:14:34;4.70;;;1.90;;
40459;SDS011;26164;51.138;16.952;2023-08-01T01:17:00;5.53;;;1.90;;
40459;SDS011;26164;51.138;16.952;2023-08-01T01:19:25;6.00;;;2.28;;
40459;SDS011;26164;51.138;16.952;2023-08-01T01:21:51;7.80;;;2.40;;
40459;SDS011;26164;51.138;16.952;2023-08-01T01:27:19;6.70;;;2.08;;
40459;SDS011;26164;51.138;16.952;2023-08-01T01:29:47;8.05;;;2.15;;
40459;SDS011;26164;51.138;16.952;2023-08-01T01:32:13;4.35;;;1.60;;
40459;SDS011;26164;51.138;16.952;2023-08-01T01:34:39;5.65;;;2.10;;
40459;SDS011;26164;51.138;16.952;2023-08-01T01:37:05;3.13;;;1.67;;
40459;SDS011;26164;51.138;16.952;2023-08-01T01:39:30;5.57;;;2.00;;
40459;SDS011;26164;51.138;16.952;2023-08-01T01:41:57;6.55;;;1.92;;
40459;SDS011;26164;51.138;16.952;2023-08-01T01:44:23;5.78;;;2.10;;
40459;SDS011;26164;51.138;16.952;2023-08-01T01:46:49;4.35;;;1.98;;
40459;SDS011;26164;51.138;16.952;2023-08-01T01:49:15;4.57;;;1.48;;
40459;SDS011;26164;51.138;16.952;2023-08-01T01:51:40;4.25;;;1.63;;
40459;SDS011;26164;51.138;16.952;2023-08-01T01:54:06;5.68;;;1.92;;
40459;SDS011;26164;51.138;16.952;2023-08-01T01:56:31;5.65;;;1.77;;
40459;SDS011;26164;51.138;16.952;2023-08-01T01:58:58;7.07;;;1.90;;
40459;SDS011;26164;51.138;16.952;2023-08-01T02:01:24;7.43;;;1.98;;
40459;SDS011;26164;51.138;16.952;2023-08-01T02:03:49;4.75;;;1.65;;
40459;SDS011;26164;51.138;16.952;2023-08-01T02:06:15;5.50;;;1.75;;
40459;SDS011;26164;51.138;16.952;2023-08-01T02:08:41;7.95;;;1.80;;
40459;SDS011;26164;51.138;16.952;2023-08-01T02:11:07;4.82;;;1.65;;
40459;SDS011;26164;51.138;16.952;2023-08-01T02:13:32;7.40;;;1.67;;
40459;SDS011;26164;51.138;16.952;2023-08-01T02:15:59;4.57;;;1.83;;
40459;SDS011;26164;51.138;16.952;2023-08-01T02:18:25;5.65;;;1.90;;
40459;SDS011;26164;51.138;16.952;2023-08-01T02:20:50;8.15;;;1.75;;
40459;SDS011;26164;51.138;16.952;2023-08-01T02:23:16;4.95;;;1.42;;
40459;SDS011;26164;51.138;16.952;2023-08-01T02:25:42;3.75;;;1.60;;
40459;SDS011;26164;51.138;16.952;2023-08-01T02:28:08;8.38;;;1.80;;
40459;SDS011;26164;51.138;16.952;2023-08-01T02:30:35;6.85;;;1.70;;
40459;SDS011;26164;51.138;16.952;2023-08-01T02:33:01;6.57;;;1.80;;
40459;SDS011;26164;51.138;16.952;2023-08-01T02:35:27;7.82;;;1.73;;
40459;SDS011;26164;51.138;16.952;2023-08-01T02:37:54;4.88;;;1.60;;
40459;SDS011;26164;51.138;16.952;2023-08-01T02:40:19;6.53;;;1.90;;
40459;SDS011;26164;51.138;16.952;2023-08-01T02:42:45;4.25;;;1.65;;
40459;SDS011;26164;51.138;16.952;2023-08-01T02:45:11;4.03;;;1.85;;
40459;SDS011;26164;51.138;16.952;2023-08-01T02:47:37;4.40;;;1.52;;
40459;SDS011;26164;51.138;16.952;2023-08-01T02:50:03;4.28;;;1.70;;
40459;SDS011;26164;51.138;16.952;2023-08-01T02:52:31;5.35;;;1.67;;
40459;SDS011;26164;51.138;16.952;2023-08-01T02:54:57;5.78;;;1.95;;
40459;SDS011;26164;51.138;16.952;2023-08-01T02:57:23;5.40;;;1.75;;
40459;SDS011;26164;51.138;16.952;2023-08-01T02:59:49;6.75;;;1.75;;
40459;SDS011;26164;51.138;16.952;2023-08-01T03:02:15;5.20;;;1.67;;
40459;SDS011;26164;51.138;16.952;2023-08-01T03:04:40;5.85;;;1.77;;
40459;SDS011;26164;51.138;16.952;2023-08-01T03:07:06;6.13;;;1.75;;
40459;SDS011;26164;51.138;16.952;2023-08-01T03:09:32;5.72;;;1.60;;
40459;SDS011;26164;51.138;16.952;2023-08-01T03:11:58;5.28;;;2.10;;
40459;SDS011;26164;51.138;16.952;2023-08-01T03:14:23;7.47;;;2.20;;
40459;SDS011;26164;51.138;16.952;2023-08-01T03:16:49;3.67;;;2.08;;
40459;SDS011;26164;51.138;16.952;2023-08-01T03:19:15;6.22;;;1.75;;
40459;SDS011;26164;51.138;16.952;2023-08-01T03:21:41;4.68;;;1.73;;
40459;SDS011;26164;51.138;16.952;2023-08-01T03:24:06;5.65;;;2.33;;
40459;SDS011;26164;51.138;16.952;2023-08-01T03:26:37;6.03;;;2.25;;
40459;SDS011;26164;51.138;16.952;2023-08-01T03:29:03;7.70;;;2.08;;
40459;SDS011;26164;51.138;16.952;2023-08-01T03:31:29;4.25;;;1.90;;
40459;SDS011;26164;51.138;16.952;2023-08-01T03:33:54;4.97;;;1.90;;
40459;SDS011;26164;51.138;16.952;2023-08-01T03:36:20;4.07;;;1.85;;
40459;SDS011;26164;51.138;16.952;2023-08-01T03:38:46;6.13;;;1.73;;
40459;SDS011;26164;51.138;16.952;2023-08-01T03:41:12;7.55;;;2.05;;
40459;SDS011;26164;51.138;16.952;2023-08-01T03:43:37;5.18;;;2.08;;
40459;SDS011;26164;51.138;16.952;2023-08-01T03:46:05;5.80;;;2.08;;
40459;SDS011;26164;51.138;16.952;2023-08-01T03:48:30;6.32;;;2.28;;
40459;SDS011;26164;51.138;16.952;2023-08-01T03:50:58;4.18;;;1.83;;
40459;SDS011;26164;51.138;16.952;2023-08-01T03:53:27;5.15;;;2.17;;
40459;SDS011;26164;51.138;16.952;2023-08-01T03:55:53;9.40;;;2.35;;
40459;SDS011;26164;51.138;16.952;2023-08-01T03:58:18;7.57;;;2.45;;
40459;SDS011;26164;51.138;16.952;2023-08-01T04:00:44;10.05;;;2.35;;
40459;SDS011;26164;51.138;16.952;2023-08-01T04:03:09;5.63;;;2.00;;
40459;SDS011;26164;51.138;16.952;2023-08-01T04:05:35;9.85;;;2.20;;
40459;SDS011;26164;51.138;16.952;2023-08-01T04:08:01;8.52;;;2.45;;
40459;SDS011;26164;51.138;16.952;2023-08-01T04:10:27;6.43;;;2.47;;
40459;SDS011;26164;51.138;16.952;2023-08-01T04:12:52;5.03;;;2.22;;
40459;SDS011;26164;51.138;16.952;2023-08-01T04:15:18;4.63;;;2.70;;
40459;SDS011;26164;51.138;16.952;2023-08-01T04:17:44;4.13;;;2.35;;
40459;SDS011;26164;51.138;16.952;2023-08-01T04:20:10;9.82;;;2.72;;
40459;SDS011;26164;51.138;16.952;2023-08-01T04:22:36;9.07;;;2.72;;
40459;SDS011;26164;51.138;16.952;2023-08-01T04:25:02;8.95;;;2.50;;
40459;SDS011;26164;51.138;16.952;2023-08-01T04:27:28;6.97;;;2.40;;
40459;SDS011;26164;51.138;16.952;2023-08-01T04:29:55;10.85;;;2.50;;
40459;SDS011;26164;51.138;16.952;2023-08-01T04:32:20;10.38;;;2.67;;
40459;SDS011;26164;51.138;16.952;2023-08-01T04:34:46;17.58;;;4.72;;
40459;SDS011;26164;51.138;16.952;2023-08-01T04:37:11;12.85;;;4.75;;
40459;SDS011;26164;51.138;16.952;2023-08-01T04:39:37;22.27;;;4.72;;
40459;SDS011;26164;51.138;16.952;2023-08-01T04:42:03;9.65;;;3.47;;
40459;SDS011;26164;51.138;16.952;2023-08-01T04:44:29;8.73;;;3.38;;
40459;SDS011;26164;51.138;16.952;2023-08-01T04:46:55;12.57;;;3.05;;
40459;SDS011;26164;51.138;16.952;2023-08-01T04:49:21;11.55;;;3.35;;
40459;SDS011;26164;51.138;16.952;2023-08-01T04:51:48;7.32;;;2.88;;
40459;SDS011;26164;51.138;16.952;2023-08-01T04:54:14;8.45;;;3.08;;
40459;SDS011;26164;51.138;16.952;2023-08-01T04:56:40;10.90;;;3.85;;
40459;SDS011;26164;51.138;16.952;2023-08-01T04:59:05;11.13;;;2.83;;
40459;SDS011;26164;51.138;16.952;2023-08-01T05:01:31;7.43;;;2.65;;
40459;SDS011;26164;51.138;16.952;2023-08-01T05:03:58;8.45;;;3.20;;
40459;SDS011;26164;51.138;16.952;2023-08-01T05:06:23;7.97;;;2.70;;
40459;SDS011;26164;51.138;16.952;2023-08-01T05:08:49;10.35;;;2.50;;
40459;SDS011;26164;51.138;16.952;2023-08-01T05:11:15;5.70;;;2.72;;
40459;SDS011;26164;51.138;16.952;2023-08-01T05:13:40;6.00;;;2.65;;
40459;SDS011;26164;51.138;16.952;2023-08-01T05:16:06;8.20;;;2.83;;
40459;SDS011;26164;51.138;16.952;2023-08-01T05:18:32;8.40;;;3.35;;
40459;SDS011;26164;51.138;16.952;2023-08-01T05:20:57;8.85;;;3.30;;
40459;SDS011;26164;51.138;16.952;2023-08-01T05:23:24;8.05;;;2.97;;
40459;SDS011;26164;51.138;16.952;2023-08-01T05:25:49;6.80;;;2.78;;
40459;SDS011;26164;51.138;16.952;2023-08-01T05:28:15;7.85;;;3.05;;
40459;SDS011;26164;51.138;16.952;2023-08-01T05:30:41;10.50;;;3.78;;
40459;SDS011;26164;51.138;16.952;2023-08-01T05:33:07;8.27;;;3.50;;
40459;SDS011;26164;51.138;16.952;2023-08-01T05:35:32;10.55;;;3.28;;
40459;SDS011;26164;51.138;16.952;2023-08-01T05:37:58;9.10;;;3.78;;
40459;SDS011;26164;51.138;16.952;2023-08-01T05:40:26;10.55;;;3.40;;
40459;SDS011;26164;51.138;16.952;2023-08-01T05:42:52;10.23;;;3.70;;
40459;SDS011;26164;51.138;16.952;2023-08-01T05:45:17;7.25;;;3.30;;
40459;SDS011;26164;51.138;16.952;2023-08-01T05:47:43;6.35;;;3.30;;
40459;SDS011;26164;51.138;16.952;2023-08-01T05:50:09;9.45;;;3.90;;
40459;SDS011;26164;51.138;16.952;2023-08-01T05:52:35;9.50;;;3.35;;
40459;SDS011;26164;51.138;16.952;2023-08-01T05:55:00;6.40;;;3.45;;
40459;SDS011;26164;51.138;16.952;2023-08-01T05:57:26;8.10;;;3.78;;
40459;SDS011;26164;51.138;16.952;2023-08-01T05:59:52;8.10;;;3.30;;
40459;SDS011;26164;51.138;16.952;2023-08-01T06:02:19;11.38;;;3.75;;
40459;SDS011;26164;51.138;16.952;2023-08-01T06:04:44;6.07;;;3.13;;
40459;SDS011;26164;51.138;16.952;2023-08-01T06:07:10;8.27;;;3.47;;
40459;SDS011;26164;51.138;16.952;2023-08-01T06:09:35;6.93;;;3.50;;
40459;SDS011;26164;51.138;16.952;2023-08-01T06:12:01;9.07;;;3.60;;
40459;SDS011;26164;51.138;16.952;2023-08-01T06:14:27;7.45;;;3.47;;
40459;SDS011;26164;51.138;16.952;2023-08-01T06:16:52;6.03;;;3.30;;
40459;SDS011;26164;51.138;16.952;2023-08-01T06:19:18;8.77;;;3.90;;
40459;SDS011;26164;51.138;16.952;2023-08-01T06:21:44;9.73;;;3.50;;
40459;SDS011;26164;51.138;16.952;2023-08-01T06:24:09;6.75;;;3.33;;
40459;SDS011;26164;51.138;16.952;2023-08-01T06:26:36;9.43;;;3.65;;
40459;SDS011;26164;51.138;16.952;2023-08-01T06:29:01;9.13;;;3.30;;
40459;SDS011;26164;51.138;16.952;2023-08-01T06:31:27;11.55;;;3.35;;
40459;SDS011;26164;51.138;16.952;2023-08-01T06:33:52;9.02;;;3.55;;
40459;SDS011;26164;51.138;16.952;2023-08-01T06:36:18;7.32;;;3.00;;
40459;SDS011;26164;51.138;16.952;2023-08-01T06:38:44;7.72;;;3.58;;
40459;SDS011;26164;51.138;16.952;2023-08-01T06:41:10;7.70;;;3.60;;
40459;SDS011;26164;51.138;16.952;2023-08-01T06:43:35;7.82;;;3.28;;
40459;SDS011;26164;51.138;16.952;2023-08-01T06:46:04;11.50;;;4.20;;
40459;SDS011;26164;51.138;16.952;2023-08-01T06:48:31;9.90;;;3.40;;
40459;SDS011;26164;51.138;16.952;2023-08-01T06:50:56;7.15;;;3.17;;
40459;SDS011;26164;51.138;16.952;2023-08-01T06:53:22;7.75;;;3.25;;
40459;SDS011;26164;51.138;16.952;2023-08-01T06:55:49;7.05;;;3.60;;
40459;SDS011;26164;51.138;16.952;2023-08-01T06:58:14;8.75;;;3.33;;
40459;SDS011;26164;51.138;16.952;2023-08-01T07:00:40;6.53;;;3.20;;
40459;SDS011;26164;51.138;16.952;2023-08-01T07:03:06;7.63;;;3.20;;
40459;SDS011;26164;51.138;16.952;2023-08-01T07:05:32;7.13;;;3.70;;
40459;SDS011;26164;51.138;16.952;2023-08-01T07:07:58;8.02;;;3.50;;
40459;SDS011;26164;51.138;16.952;2023-08-01T07:10:24;9.57;;;3.40;;
40459;SDS011;26164;51.138;16.952;2023-08-01T07:12:51;4.05;;;3.05;;
40459;SDS011;26164;51.138;16.952;2023-08-01T07:15:17;6.13;;;3.28;;
40459;SDS011;26164;51.138;16.952;2023-08-01T08:11:05;5.43;;;2.47;;
40459;SDS011;26164;51.138;16.952;2023-08-01T08:13:32;6.22;;;2.90;;
40459;SDS011;26164;51.138;16.952;2023-08-01T08:15:58;5.20;;;2.83;;
40459;SDS011;26164;51.138;16.952;2023-08-01T08:18:26;6.05;;;2.92;;
40459;SDS011;26164;51.138;16.952;2023-08-01T08:20:52;8.32;;;2.95;;
40459;SDS011;26164;51.138;16.952;2023-08-01T08:23:18;6.30;;;2.95;;
40459;SDS011;26164;51.138;16.952;2023-08-01T08:25:45;6.30;;;2.92;;
40459;SDS011;26164;51.138;16.952;2023-08-01T08:28:13;5.97;;;2.85;;
40459;SDS011;26164;51.138;16.952;2023-08-01T08:30:41;10.55;;;3.10;;
40459;SDS011;26164;51.138;16.952;2023-08-01T08:33:08;8.20;;;3.00;;
40459;SDS011;26164;51.138;16.952;2023-08-01T08:35:35;7.57;;;2.97;;
40459;SDS011;26164;51.138;16.952;2023-08-01T08:38:02;5.80;;;2.67;;
40459;SDS011;26164;51.138;16.952;2023-08-01T08:40:29;8.18;;;3.20;;
40459;SDS011;26164;51.138;16.952;2023-08-01T08:42:57;8.55;;;2.85;;
40459;SDS011;26164;51.138;16.952;2023-08-01T08:45:23;7.25;;;2.83;;
40459;SDS011;26164;51.138;16.952;2023-08-01T08:47:52;8.85;;;2.95;;
40459;SDS011;26164;51.138;16.952;2023-08-01T08:50:20;7.70;;;2.75;;
40459;SDS011;26164;51.138;16.952;2023-08-01T08:52:46;7.53;;;2.83;;
40459;SDS011;26164;51.138;16.952;2023-08-01T08:55:12;7.72;;;2.65;;
40459;SDS011;26164;51.138;16.952;2023-08-01T08:57:38;7.82;;;3.00;;
40459;SDS011;26164;51.138;16.952;2023-08-01T09:00:05;7.90;;;2.95;;
40459;SDS011;26164;51.138;16.952;2023-08-01T09:02:33;5.72;;;2.75;;
40459;SDS011;26164;51.138;16.952;2023-08-01T09:04:59;4.68;;;2.60;;
40459;SDS011;26164;51.138;16.952;2023-08-01T09:07:25;6.10;;;2.47;;
40459;SDS011;26164;51.138;16.952;2023-08-01T09:09:52;8.70;;;3.53;;
40459;SDS011;26164;51.138;16.952;2023-08-01T09:12:18;4.80;;;2.60;;
40459;SDS011;26164;51.138;16.952;2023-08-01T09:14:44;6.95;;;2.45;;
40459;SDS011;26164;51.138;16.952;2023-08-01T09:17:10;4.78;;;2.42;;
40459;SDS011;26164;51.138;16.952;2023-08-01T09:19:38;5.68;;;2.97;;
40459;SDS011;26164;51.138;16.952;2023-08-01T09:22:09;5.82;;;2.67;;
40459;SDS011;26164;51.138;16.952;2023-08-01T09:24:35;8.35;;;2.70;;
40459;SDS011;26164;51.138;16.952;2023-08-01T09:27:02;5.07;;;2.10;;
40459;SDS011;26164;51.138;16.952;2023-08-01T09:29:29;4.53;;;2.47;;
40459;SDS011;26164;51.138;16.952;2023-08-01T09:31:57;5.95;;;2.63;;
40459;SDS011;26164;51.138;16.952;2023-08-01T09:34:23;5.47;;;3.00;;
40459;SDS011;26164;51.138;16.952;2023-08-01T09:36:50;6.43;;;2.72;;
40459;SDS011;26164;51.138;16.952;2023-08-01T09:39:16;5.13;;;2.58;;
40459;SDS011;26164;51.138;16.952;2023-08-01T09:41:42;5.57;;;2.67;;
40459;SDS011;26164;51.138;16.952;2023-08-01T09:44:11;6.70;;;2.50;;
40459;SDS011;26164;51.138;16.952;2023-08-01T09:46:37;6.97;;;2.60;;
40459;SDS011;26164;51.138;16.952;2023-08-01T09:49:07;8.68;;;2.30;;
40459;SDS011;26164;51.138;16.952;2023-08-01T09:51:33;7.85;;;2.58;;
40459;SDS011;26164;51.138;16.952;2023-08-01T09:53:59;7.70;;;2.97;;
40459;SDS011;26164;51.138;16.952;2023-08-01T09:56:25;6.13;;;2.38;;
40459;SDS011;26164;51.138;16.952;2023-08-01T09:58:52;5.88;;;2.50;;
40459;SDS011;26164;51.138;16.952;2023-08-01T10:01:19;5.18;;;2.47;;
40459;SDS011;26164;51.138;16.952;2023-08-01T10:03:46;4.28;;;2.13;;
40459;SDS011;26164;51.138;16.952;2023-08-01T10:06:23;4.32;;;2.38;;
40459;SDS011;26164;51.138;16.952;2023-08-01T10:08:49;5.68;;;2.25;;
40459;SDS011;26164;51.138;16.952;2023-08-01T10:11:16;4.88;;;2.50;;
40459;SDS011;26164;51.138;16.952;2023-08-01T10:13:42;6.10;;;2.50;;
40459;SDS011;26164;51.138;16.952;2023-08-01T10:16:09;6.72;;;2.83;;
40459;SDS011;26164;51.138;16.952;2023-08-01T10:18:35;5.10;;;2.10;;
40459;SDS011;26164;51.138;16.952;2023-08-01T10:21:06;4.57;;;2.20;;
40459;SDS011;26164;51.138;16.952;2023-08-01T10:23:32;4.57;;;2.28;;
40459;SDS011;26164;51.138;16.952;2023-08-01T10:25:59;7.35;;;2.05;;
40459;SDS011;26164;51.138;16.952;2023-08-01T10:28:35;4.03;;;2.30;;
40459;SDS011;26164;51.138;16.952;2023-08-01T10:31:12;5.32;;;2.00;;
40459;SDS011;26164;51.138;16.952;2023-08-01T10:33:38;4.25;;;1.98;;
40459;SDS011;26164;51.138;16.952;2023-08-01T10:36:12;6.78;;;2.00;;
40459;SDS011;26164;51.138;16.952;2023-08-01T10:38:44;7.97;;;2.53;;
40459;SDS011;26164;51.138;16.952;2023-08-01T10:41:18;4.13;;;2.03;;
40459;SDS011;26164;51.138;16.952;2023-08-01T10:43:44;5.20;;;1.98;;
40459;SDS011;26164;51.138;16.952;2023-08-01T10:46:09;4.63;;;2.08;;
40459;SDS011;26164;51.138;16.952;2023-08-01T10:48:35;3.58;;;2.05;;
40459;SDS011;26164;51.138;16.952;2023-08-01T10:51:01;4.18;;;1.95;;
40459;SDS011;26164;51.138;16.952;2023-08-01T10:53:37;5.95;;;2.20;;
40459;SDS011;26164;51.138;16.952;2023-08-01T10:56:03;4.70;;;2.03;;
40459;SDS011;26164;51.138;16.952;2023-08-01T10:58:28;5.55;;;2.17;;
40459;SDS011;26164;51.138;16.952;2023-08-01T11:00:58;8.52;;;2.55;;
40459;SDS011;26164;51.138;16.952;2023-08-01T11:03:33;4.45;;;2.10;;
40459;SDS011;26164;51.138;16.952;2023-08-01T11:05:59;5.80;;;2.58;;
40459;SDS011;26164;51.138;16.952;2023-08-01T11:08:33;6.70;;;2.50;;
40459;SDS011;26164;51.138;16.952;2023-08-01T11:10:59;4.93;;;2.40;;
40459;SDS011;26164;51.138;16.952;2023-08-01T11:13:25;6.20;;;2.22;;
40459;SDS011;26164;51.138;16.952;2023-08-01T11:15:52;4.57;;;2.17;;
40459;SDS011;26164;51.138;16.952;2023-08-01T11:18:19;9.60;;;2.45;;
40459;SDS011;26164;51.138;16.952;2023-08-01T11:20:45;5.63;;;2.53;;
40459;SDS011;26164;51.138;16.952;2023-08-01T11:23:11;6.43;;;2.00;;
40459;SDS011;26164;51.138;16.952;2023-08-01T11:25:39;6.97;;;2.85;;
40459;SDS011;26164;51.138;16.952;2023-08-01T11:28:09;4.35;;;1.90;;
40459;SDS011;26164;51.138;16.952;2023-08-01T11:30:35;3.15;;;1.60;;
40459;SDS011;26164;51.138;16.952;2023-08-01T11:33:01;3.67;;;1.80;;
40459;SDS011;26164;51.138;16.952;2023-08-01T11:35:28;5.07;;;1.90;;
40459;SDS011;26164;51.138;16.952;2023-08-01T11:37:55;7.97;;;1.90;;
40459;SDS011;26164;51.138;16.952;2023-08-01T11:40:22;5.80;;;1.73;;
40459;SDS011;26164;51.138;16.952;2023-08-01T11:42:48;6.03;;;1.90;;
40459;SDS011;26164;51.138;16.952;2023-08-01T11:45:16;3.22;;;1.40;;
40459;SDS011;26164;51.138;16.952;2023-08-01T11:47:45;4.25;;;1.63;;
40459;SDS011;26164;51.138;16.952;2023-08-01T11:50:12;4.68;;;2.10;;
40459;SDS011;26164;51.138;16.952;2023-08-01T11:52:37;4.55;;;1.38;;
40459;SDS011;26164;51.138;16.952;2023-08-01T11:55:03;2.50;;;1.67;;
40459;SDS011;26164;51.138;16.952;2023-08-01T11:57:29;2.63;;;1.50;;
40459;SDS011;26164;51.138;16.952;2023-08-01T11:59:55;4.07;;;1.30;;
40459;SDS011;26164;51.138;16.952;2023-08-01T12:02:28;3.92;;;1.30;;
40459;SDS011;26164;51.138;16.952;2023-08-01T12:04:57;2.95;;;1.50;;
40459;SDS011;26164;51.138;16.952;2023-08-01T12:07:25;5.03;;;1.23;;
40459;SDS011;26164;51.138;16.952;2023-08-01T12:10:00;2.15;;;1.05;;
40459;SDS011;26164;51.138;16.952;2023-08-01T12:12:26;2.67;;;1.20;;
40459;SDS011;26164;51.138;16.952;2023-08-01T12:14:52;3.17;;;1.15;;
40459;SDS011;26164;51.138;16.952;2023-08-01T12:17:19;2.78;;;1.33;;
40459;SDS011;26164;51.138;16.952;2023-08-01T12:19:44;2.00;;;0.98;;
40459;SDS011;26164;51.138;16.952;2023-08-01T12:22:11;3.33;;;1.30;;
40459;SDS011;26164;51.138;16.952;2023-08-01T12:24:37;2.30;;;1.00;;
40459;SDS011;26164;51.138;16.952;2023-08-01T12:27:06;3.50;;;1.50;;
40459;SDS011;26164;51.138;16.952;2023-08-01T12:29:32;4.38;;;1.20;;
40459;SDS011;26164;51.138;16.952;2023-08-01T12:31:58;4.00;;;1.23;;
40459;SDS011;26164;51.138;16.952;2023-08-01T12:34:24;3.58;;;1.25;;
40459;SDS011;26164;51.138;16.952;2023-08-01T12:36:49;2.28;;;1.05;;
40459;SDS011;26164;51.138;16.952;2023-08-01T12:39:15;2.65;;;1.10;;
40459;SDS011;26164;51.138;16.952;2023-08-01T12:41:41;3.33;;;1.10;;
40459;SDS011;26164;51.138;16.952;2023-08-01T12:44:06;5.13;;;1.08;;
40459;SDS011;26164;51.138;16.952;2023-08-01T12:46:32;2.65;;;0.95;;
40459;SDS011;26164;51.138;16.952;2023-08-01T12:48:58;2.58;;;1.27;;
40459;SDS011;26164;51.138;16.952;2023-08-01T12:51:24;4.97;;;1.63;;
40459;SDS011;26164;51.138;16.952;2023-08-01T12:53:49;4.30;;;1.13;;
40459;SDS011;26164;51.138;16.952;2023-08-01T12:56:15;3.13;;;1.20;;
40459;SDS011;26164;51.138;16.952;2023-08-01T12:58:41;2.38;;;1.20;;
40459;SDS011;26164;51.138;16.952;2023-08-01T13:01:07;4.35;;;0.98;;
40459;SDS011;26164;51.138;16.952;2023-08-01T13:03:33;4.35;;;1.00;;
40459;SDS011;26164;51.138;16.952;2023-08-01T13:05:58;2.65;;;1.05;;
40459;SDS011;26164;51.138;16.952;2023-08-01T13:08:24;3.72;;;1.25;;
40459;SDS011;26164;51.138;16.952;2023-08-01T13:10:50;3.05;;;0.98;;
40459;SDS011;26164;51.138;16.952;2023-08-01T13:13:16;4.40;;;1.13;;
40459;SDS011;26164;51.138;16.952;2023-08-01T13:15:41;3.85;;;1.08;;
40459;SDS011;26164;51.138;16.952;2023-08-01T13:18:08;2.53;;;1.08;;
40459;SDS011;26164;51.138;16.952;2023-08-01T13:20:34;2.90;;;1.35;;
40459;SDS011;26164;51.138;16.952;2023-08-01T13:23:00;2.70;;;1.20;;
40459;SDS011;26164;51.138;16.952;2023-08-01T13:25:25;6.28;;;1.20;;
40459;SDS011;26164;51.138;16.952;2023-08-01T13:27:51;8.70;;;1.30;;
40459;SDS011;26164;51.138;16.952;2023-08-01T13:30:17;6.22;;;1.10;;
40459;SDS011;26164;51.138;16.952;2023-08-01T13:32:46;2.25;;;0.98;;
40459;SDS011;26164;51.138;16.952;2023-08-01T13:35:11;11.13;;;1.40;;
40459;SDS011;26164;51.138;16.952;2023-08-01T13:37:39;10.40;;;1.50;;
40459;SDS011;26164;51.138;16.952;2023-08-01T13:40:05;3.00;;;1.08;;
40459;SDS011;26164;51.138;16.952;2023-08-01T13:42:31;3.22;;;0.90;;
40459;SDS011;26164;51.138;16.952;2023-08-01T13:44:56;3.92;;;1.10;;
40459;SDS011;26164;51.138;16.952;2023-08-01T13:47:22;2.17;;;1.08;;
40459;SDS011;26164;51.138;16.952;2023-08-01T13:49:48;4.07;;;1.00;;
40459;SDS011;26164;51.138;16.952;2023-08-01T13:52:14;2.90;;;0.75;;
40459;SDS011;26164;51.138;16.952;2023-08-01T13:54:39;3.10;;;0.85;;
40459;SDS011;26164;51.138;16.952;2023-08-01T13:57:06;3.90;;;1.17;;
40459;SDS011;26164;51.138;16.952;2023-08-01T13:59:31;2.78;;;1.10;;
40459;SDS011;26164;51.138;16.952;2023-08-01T14:01:57;3.63;;;1.02;;
40459;SDS011;26164;51.138;16.952;2023-08-01T14:04:22;2.72;;;0.98;;
40459;SDS011;26164;51.138;16.952;2023-08-01T14:06:48;4.47;;;1.00;;
40459;SDS011;26164;51.138;16.952;2023-08-01T14:09:16;3.78;;;1.02;;
40459;SDS011;26164;51.138;16.952;2023-08-01T14:11:43;2.05;;;1.00;;
40459;SDS011;26164;51.138;16.952;2023-08-01T14:14:08;3.85;;;1.13;;
40459;SDS011;26164;51.138;16.952;2023-08-01T14:16:34;4.18;;;0.95;;
40459;SDS011;26164;51.138;16.952;2023-08-01T14:19:00;4.63;;;0.88;;
40459;SDS011;26164;51.138;16.952;2023-08-01T14:21:26;2.28;;;1.02;;
40459;SDS011;26164;51.138;16.952;2023-08-01T14:23:51;4.38;;;0.95;;
40459;SDS011;26164;51.138;16.952;2023-08-01T14:26:17;2.40;;;1.23;;
40459;SDS011;26164;51.138;16.952;2023-08-01T14:28:42;2.53;;;1.30;;
40459;SDS011;26164;51.138;16.952;2023-08-01T14:31:08;2.63;;;1.13;;
40459;SDS011;26164;51.138;16.952;2023-08-01T14:33:34;4.20;;;1.20;;
40459;SDS011;26164;51.138;16.952;2023-08-01T14:36:01;5.45;;;1.15;;
40459;SDS011;26164;51.138;16.952;2023-08-01T14:38:28;5.38;;;1.08;;
40459;SDS011;26164;51.138;16.952;2023-08-01T14:40:53;2.75;;;1.30;;
40459;SDS011;26164;51.138;16.952;2023-08-01T14:43:19;4.00;;;1.02;;
40459;SDS011;26164;51.138;16.952;2023-08-01T14:45:45;3.63;;;1.17;;
40459;SDS011;26164;51.138;16.952;2023-08-01T14:48:10;2.97;;;1.10;;
40459;SDS011;26164;51.138;16.952;2023-08-01T14:50:39;2.30;;;1.10;;
40459;SDS011;26164;51.138;16.952;2023-08-01T14:53:05;2.78;;;1.30;;
40459;SDS011;26164;51.138;16.952;2023-08-01T14:55:33;3.70;;;1.30;;
40459;SDS011;26164;51.138;16.952;2023-08-01T14:57:58;2.30;;;1.23;;
40459;SDS011;26164;51.138;16.952;2023-08-01T15:00:24;5.28;;;1.27;;
40459;SDS011;26164;51.138;16.952;2023-08-01T15:02:50;6.40;;;1.38;;
40459;SDS011;26164;51.138;16.952;2023-08-01T15:05:16;3.53;;;1.50;;
40459;SDS011;26164;51.138;16.952;2023-08-01T15:07:42;3.50;;;1.30;;
40459;SDS011;26164;51.138;16.952;2023-08-01T15:10:08;2.95;;;1.30;;
40459;SDS011;26164;51.138;16.952;2023-08-01T15:12:34;1.92;;;1.00;;
40459;SDS011;26164;51.138;16.952;2023-08-01T15:15:00;5.47;;;1.50;;
40459;SDS011;26164;51.138;16.952;2023-08-01T15:17:26;4.25;;;1.27;;
40459;SDS011;26164;51.138;16.952;2023-08-01T15:19:53;3.65;;;1.40;;
40459;SDS011;26164;51.138;16.952;2023-08-01T15:22:19;3.42;;;1.30;;
40459;SDS011;26164;51.138;16.952;2023-08-01T15:24:45;3.78;;;1.30;;